createdAt,value
2023-02-17T00:06:15.519Z,11.57
2023-02-17T00:17:04.681Z,12.97
2023-02-17T00:27:08.080Z,13.60
2023-02-17T00:33:33.303Z,13.03
2023-02-17T00:36:30.254Z,12.80
2023-02-17T00:39:27.613Z,13.20
2023-02-17T00:42:06.545Z,12.73
2023-02-17T00:47:42.217Z,13.50
2023-02-17T00:50:46.541Z,12.47
2023-02-17T01:16:46.220Z,13.03
2023-02-17T01:19:28.930Z,13.13
2023-02-17T01:22:21.271Z,12.67
2023-02-17T01:25:10.635Z,11.77
2023-02-17T01:28:06.472Z,13.40
2023-02-17T01:30:39.936Z,13.83
2023-02-17T01:33:12.430Z,13.40
2023-02-17T01:42:29.911Z,12.43
2023-02-17T01:45:50.612Z,12.77
2023-02-17T01:48:28.932Z,12.80
2023-02-17T01:51:12.043Z,13.77
2023-02-17T02:18:55.753Z,10.93
2023-02-17T02:22:35.655Z,11.17
2023-02-17T02:25:45.661Z,11.00
2023-02-17T02:28:37.551Z,10.73
2023-02-17T02:32:09.671Z,11.70
2023-02-17T02:35:26.488Z,11.60
2023-02-17T02:38:17.493Z,11.17
2023-02-17T02:41:28.010Z,11.30
2023-02-17T02:48:19.108Z,11.00
2023-02-17T02:51:34.247Z,11.43
2023-02-17T02:57:53.467Z,10.20
2023-02-17T03:00:57.804Z,11.07
2023-02-17T03:03:43.283Z,10.83
2023-02-17T03:06:33.465Z,11.17
2023-02-17T03:13:14.555Z,10.77
2023-02-17T03:16:09.609Z,10.60
2023-02-17T03:18:56.764Z,9.53
2023-02-17T03:21:41.246Z,10.27
2023-02-17T03:49:57.303Z,9.70
2023-02-17T03:53:01.614Z,9.43
2023-02-17T03:56:05.214Z,9.30
2023-02-17T03:58:58.490Z,8.43
2023-02-17T04:01:57.688Z,10.30
2023-02-17T04:04:39.487Z,9.30
2023-02-17T04:07:47.990Z,8.57
2023-02-17T04:10:47.919Z,10.23
2023-02-17T04:13:46.717Z,9.93
2023-02-17T04:16:38.675Z,10.17
2023-02-17T04:19:37.951Z,11.00
2023-02-17T04:40:48.847Z,8.00
2023-02-17T04:43:39.147Z,7.27
2023-02-17T04:50:14.532Z,7.93
2023-02-17T04:53:44.195Z,8.17
2023-02-17T04:59:51.927Z,6.87
2023-02-17T05:02:50.727Z,6.70
2023-02-17T05:05:35.804Z,6.77
2023-02-17T05:08:15.556Z,7.00
2023-02-17T05:10:48.472Z,6.23
2023-02-17T05:27:50.207Z,5.30
2023-02-17T05:33:55.338Z,5.13
2023-02-17T05:36:34.323Z,5.67
2023-02-17T05:43:20.209Z,4.87
2023-02-17T05:49:17.997Z,3.93
2023-02-17T05:52:17.902Z,4.13
2023-02-17T05:54:56.118Z,4.60
2023-02-17T05:57:43.141Z,4.40
2023-02-17T06:00:32.831Z,4.37
2023-02-17T06:33:06.845Z,4.70
2023-02-17T06:36:19.138Z,3.77
2023-02-17T06:42:38.339Z,3.90
2023-02-17T06:45:15.995Z,4.63
2023-02-17T06:52:17.387Z,4.00
2023-02-17T06:55:05.442Z,3.90
2023-02-17T06:58:02.909Z,4.63
2023-02-17T07:00:39.163Z,4.93
2023-02-17T07:03:13.411Z,4.30
2023-02-17T07:06:07.882Z,5.33
2023-02-17T07:08:50.482Z,4.33
2023-02-17T07:29:23.674Z,5.07
2023-02-17T07:32:06.263Z,5.20
2023-02-17T07:34:51.501Z,5.17
2023-02-17T07:37:52.058Z,5.23
2023-02-17T07:40:42.981Z,5.00
2023-02-17T07:43:50.453Z,5.00
2023-02-17T07:47:01.096Z,5.47
2023-02-17T07:52:50.908Z,5.13
2023-02-17T07:55:40.359Z,6.20
2023-02-17T07:58:47.900Z,6.77
2023-02-17T08:01:53.766Z,6.03
2023-02-17T08:04:53.950Z,6.87
2023-02-17T08:27:39.585Z,6.70
2023-02-17T08:30:17.099Z,7.10
2023-02-17T08:33:12.572Z,6.20
2023-02-17T08:36:15.066Z,5.73
2023-02-17T08:38:52.006Z,6.70
2023-02-17T08:41:31.993Z,7.00
2023-02-17T08:44:16.285Z,6.27
2023-02-17T08:47:01.856Z,6.27
2023-02-17T08:49:50.875Z,7.37
2023-02-17T09:33:27.203Z,8.07
2023-02-17T09:36:51.279Z,7.47
2023-02-17T09:40:06.074Z,7.23
2023-02-17T09:43:08.673Z,7.30
2023-02-17T09:45:58.735Z,7.03
2023-02-17T09:53:25.858Z,6.60
2023-02-17T09:59:53.138Z,5.73
2023-02-17T10:02:45.036Z,7.17
2023-02-17T10:05:26.188Z,7.37
2023-02-17T10:11:49.035Z,7.00
2023-02-17T10:14:39.003Z,5.80
2023-02-17T10:20:45.557Z,5.33
2023-02-17T10:23:24.293Z,5.73
2023-02-17T10:51:33.692Z,4.23
2023-02-17T10:54:58.186Z,4.40
2023-02-17T11:00:57.728Z,4.30
2023-02-17T11:07:27.041Z,4.43
2023-02-17T11:14:11.313Z,4.10
2023-02-17T11:17:40.742Z,3.43
2023-02-17T11:20:35.140Z,3.90
2023-02-17T11:26:06.886Z,3.57
2023-02-17T11:28:49.240Z,3.43
2023-02-17T11:31:39.806Z,4.20
2023-02-17T11:35:04.424Z,4.40
2023-02-17T11:41:26.999Z,3.20
2023-02-17T11:44:27.791Z,3.23
2023-02-17T11:47:32.364Z,3.37
2023-02-17T11:50:40.874Z,3.43
2023-02-17T12:16:26.739Z,2.90
2023-02-17T12:19:18.634Z,2.70
2023-02-17T12:22:12.311Z,2.83
2023-02-17T12:25:35.072Z,2.23
2023-02-17T12:28:56.401Z,2.40
2023-02-17T12:32:19.078Z,2.33
2023-02-17T12:35:38.433Z,2.20
2023-02-17T12:38:19.892Z,2.03
2023-02-17T12:41:15.086Z,1.70
2023-02-17T12:44:36.830Z,1.70
2023-02-17T12:55:25.138Z,2.30
2023-02-17T12:58:14.101Z,1.80
2023-02-17T13:16:24.129Z,1.37
2023-02-17T13:28:57.238Z,1.40
2023-02-17T13:31:51.407Z,1.40
2023-02-17T13:35:21.942Z,1.33
2023-02-17T13:38:53.402Z,1.40
2023-02-17T13:41:25.747Z,0.93
2023-02-17T13:47:40.237Z,1.00
2023-02-17T14:10:06.713Z,1.00
2023-02-17T14:13:13.853Z,1.30
2023-02-17T14:16:08.029Z,1.03
2023-02-17T14:18:52.124Z,0.87
2023-02-17T14:25:29.034Z,0.80
2023-02-17T14:28:10.199Z,0.97
2023-02-17T14:31:23.959Z,1.20
2023-02-17T14:34:45.769Z,1.07
2023-02-17T14:41:20.130Z,1.13
2023-02-17T14:44:37.001Z,1.03
2023-02-17T14:47:20.873Z,0.80
2023-02-17T14:50:19.972Z,1.00
2023-02-17T15:09:03.332Z,1.00
2023-02-17T15:11:45.935Z,0.90
2023-02-17T15:14:17.791Z,1.00
2023-02-17T15:16:49.248Z,0.97
2023-02-17T15:19:19.471Z,0.73
2023-02-17T15:21:58.742Z,1.10
2023-02-17T15:24:34.661Z,0.70
2023-02-17T15:27:05.198Z,0.93
2023-02-17T16:04:38.839Z,0.87
2023-02-17T16:08:10.796Z,1.10
2023-02-17T16:11:12.980Z,1.20
2023-02-17T16:14:03.159Z,0.80
2023-02-17T16:16:41.300Z,1.17
2023-02-17T16:20:04.127Z,1.20
2023-02-17T16:22:52.187Z,1.10
2023-02-17T16:26:19.833Z,1.27
2023-02-17T16:29:41.050Z,1.00
2023-02-17T16:32:35.344Z,1.40
2023-02-17T17:10:18.248Z,1.40
2023-02-17T17:12:54.299Z,1.23
2023-02-17T17:15:24.149Z,1.40
2023-02-17T17:17:57.255Z,1.50
2023-02-17T17:20:32.297Z,1.27
2023-02-17T17:23:03.744Z,1.50
2023-02-17T17:25:41.233Z,1.53
2023-02-17T17:49:33.927Z,1.90
2023-02-17T17:52:08.664Z,2.13
2023-02-17T17:54:48.821Z,1.50
2023-02-17T17:57:26.923Z,1.73
2023-02-17T18:04:25.695Z,2.20
2023-02-17T18:07:49.017Z,1.97
2023-02-17T18:10:53.268Z,2.83
2023-02-17T18:16:42.410Z,3.90
2023-02-17T18:32:44.170Z,3.80
2023-02-17T18:43:10.991Z,2.90
2023-02-17T18:46:52.244Z,3.50
2023-02-17T22:08:37.104Z,5.03
2023-02-17T22:19:55.508Z,4.63
2023-02-17T22:44:08.433Z,8.87
2023-02-17T22:47:09.062Z,10.53
2023-02-17T22:53:45.545Z,11.13
2023-02-17T23:06:52.924Z,8.80
2023-02-17T23:10:20.699Z,8.63
2023-02-17T23:12:56.364Z,6.53
2023-02-17T23:29:10.706Z,3.37
2023-02-17T23:58:47.040Z,1.70
